createdAt,value
2019-01-10T00:02:29.166Z,20.29
2019-01-10T00:05:32.634Z,20.28
2019-01-10T00:08:36.386Z,20.26
2019-01-10T00:11:40.001Z,20.28
2019-01-10T00:14:43.450Z,20.26
2019-01-10T00:17:47.047Z,20.26
2019-01-10T00:20:50.498Z,20.24
2019-01-10T00:23:53.946Z,20.24
2019-01-10T00:26:57.549Z,20.24
2019-01-10T00:30:01.053Z,20.23
2019-01-10T00:33:04.583Z,20.22
2019-01-10T00:36:08.044Z,20.22
2019-01-10T00:39:11.576Z,20.22
2019-01-10T00:42:15.152Z,20.22
2019-01-10T00:45:18.818Z,20.23
2019-01-10T00:48:22.471Z,20.24
2019-01-10T00:51:25.987Z,20.25
2019-01-10T00:54:30.513Z,20.26
2019-01-10T00:57:39.775Z,20.26
2019-01-10T01:00:43.251Z,20.25
2019-01-10T01:03:46.737Z,20.25
2019-01-10T01:06:50.168Z,20.25
2019-01-10T01:09:53.640Z,20.25
2019-01-10T01:12:58.629Z,20.24
2019-01-10T01:16:02.552Z,20.26
2019-01-10T01:19:06.078Z,20.24
2019-01-10T01:22:09.524Z,20.24
2019-01-10T01:25:13.202Z,20.25
2019-01-10T01:28:16.784Z,20.25
2019-01-10T01:31:20.297Z,20.24
2019-01-10T01:34:23.787Z,20.23
2019-01-10T01:37:27.286Z,20.21
2019-01-10T01:40:30.831Z,20.21
2019-01-10T01:43:35.418Z,20.21
2019-01-10T01:46:39.010Z,20.19
2019-01-10T01:49:42.562Z,20.19
2019-01-10T01:52:47.051Z,20.19
2019-01-10T01:55:50.562Z,20.18
2019-01-10T01:58:55.065Z,20.17
2019-01-10T02:01:59.612Z,20.17
2019-01-10T02:05:03.095Z,20.18
2019-01-10T02:08:06.595Z,20.20
2019-01-10T02:11:10.103Z,20.17
2019-01-10T02:14:13.608Z,20.18
2019-01-10T02:17:17.123Z,20.19
2019-01-10T02:20:20.640Z,20.20
2019-01-10T02:23:24.112Z,20.21
2019-01-10T02:26:34.332Z,20.20
2019-01-10T02:29:37.979Z,20.20
2019-01-10T02:32:41.464Z,20.19
2019-01-10T02:35:44.974Z,20.21
2019-01-10T02:38:48.459Z,20.20
2019-01-10T02:41:51.988Z,20.20
2019-01-10T02:44:55.496Z,20.21
2019-01-10T02:47:59.071Z,20.21
2019-01-10T02:51:03.589Z,20.22
2019-01-10T02:54:07.127Z,20.20
2019-01-10T02:57:10.598Z,20.20
2019-01-10T03:00:21.901Z,20.19
2019-01-10T03:03:26.418Z,20.19
2019-01-10T03:06:29.908Z,20.19
2019-01-10T03:09:33.355Z,20.19
2019-01-10T03:12:37.962Z,20.17
2019-01-10T03:15:44.526Z,20.16
2019-01-10T03:18:49.055Z,20.15
2019-01-10T03:21:52.531Z,20.15
2019-01-10T03:24:56.034Z,20.15
2019-01-10T03:27:59.527Z,20.14
2019-01-10T03:31:04.103Z,20.16
2019-01-10T03:34:09.630Z,20.15
2019-01-10T03:37:13.100Z,20.14
2019-01-10T03:40:21.415Z,20.14
2019-01-10T03:43:24.936Z,20.14
2019-01-10T03:46:28.537Z,20.15
2019-01-10T03:49:33.033Z,20.15
2019-01-10T03:52:36.541Z,20.16
2019-01-10T03:55:40.049Z,20.16
2019-01-10T03:58:43.548Z,20.16
2019-01-10T04:01:48.070Z,20.15
2019-01-10T04:04:52.596Z,20.16
2019-01-10T04:07:56.029Z,20.16
2019-01-10T04:10:59.500Z,20.15
2019-01-10T04:14:02.937Z,20.16
2019-01-10T04:17:06.399Z,20.15
2019-01-10T04:20:11.214Z,20.16
2019-01-10T04:23:14.652Z,20.16
2019-01-10T04:26:18.139Z,20.16
2019-01-10T04:29:23.702Z,20.15
2019-01-10T04:32:28.210Z,20.14
2019-01-10T04:35:31.696Z,20.14
2019-01-10T04:38:35.213Z,20.15
2019-01-10T04:41:38.700Z,20.16
2019-01-10T04:44:42.217Z,20.14
2019-01-10T04:47:46.747Z,20.12
2019-01-10T04:50:50.237Z,20.12
2019-01-10T04:53:53.723Z,20.11
2019-01-10T04:56:57.251Z,20.12
2019-01-10T05:00:00.738Z,20.13
2019-01-10T05:03:04.240Z,20.13
2019-01-10T05:06:08.791Z,20.12
2019-01-10T05:09:13.301Z,20.11
2019-01-10T05:12:18.839Z,20.13
2019-01-10T05:15:23.353Z,20.12
2019-01-10T05:18:28.903Z,20.13
2019-01-10T05:21:32.439Z,20.13
2019-01-10T05:24:35.925Z,20.14
2019-01-10T05:27:39.449Z,20.15
2019-01-10T05:30:42.912Z,20.13
2019-01-10T05:33:46.443Z,20.14
2019-01-10T05:36:49.913Z,20.13
2019-01-10T05:39:53.407Z,20.14
2019-01-10T05:42:56.923Z,20.14
2019-01-10T05:46:00.428Z,20.14
2019-01-10T05:49:04.937Z,20.15
2019-01-10T05:52:08.442Z,20.13
2019-01-10T05:55:13.976Z,20.13
2019-01-10T05:58:17.587Z,20.13
2019-01-10T06:01:21.112Z,20.14
2019-01-10T06:04:24.690Z,20.13
2019-01-10T06:07:28.211Z,20.13
2019-01-10T06:10:33.824Z,20.13
2019-01-10T06:13:38.266Z,20.11
2019-01-10T06:16:45.125Z,20.12
2019-01-10T06:19:48.062Z,20.13
2019-01-10T06:22:51.544Z,20.11
2019-01-10T06:25:55.035Z,20.10
2019-01-10T06:28:58.567Z,20.12
2019-01-10T06:32:02.154Z,20.11
2019-01-10T06:35:06.687Z,20.10
2019-01-10T06:38:16.921Z,20.12
2019-01-10T06:41:20.415Z,20.10
2019-01-10T06:44:23.944Z,20.10
2019-01-10T06:47:28.501Z,20.09
2019-01-10T06:50:31.971Z,20.10
2019-01-10T06:53:35.464Z,20.13
2019-01-10T06:56:38.956Z,20.11
2019-01-10T06:59:43.473Z,20.11
2019-01-10T07:02:47.022Z,20.12
2019-01-10T07:05:51.520Z,20.11
2019-01-10T07:08:54.959Z,20.11
2019-01-10T07:11:59.562Z,20.11
2019-01-10T07:15:04.053Z,20.09
2019-01-10T07:18:07.557Z,20.11
2019-01-10T07:21:11.043Z,20.10
2019-01-10T07:24:15.589Z,20.10
2019-01-10T07:27:21.174Z,20.11
2019-01-10T07:30:35.927Z,20.11
2019-01-10T07:33:33.164Z,20.12
2019-01-10T07:36:36.761Z,20.10
2019-01-10T07:39:40.193Z,20.11
2019-01-10T07:42:44.071Z,20.11
2019-01-10T07:45:47.581Z,20.10
2019-01-10T07:48:51.067Z,20.10
2019-01-10T07:51:54.576Z,20.10
2019-01-10T07:54:58.175Z,20.10
2019-01-10T07:58:01.681Z,20.11
2019-01-10T08:01:06.182Z,20.09
2019-01-10T08:04:11.726Z,20.09
2019-01-10T08:07:15.240Z,20.11
2019-01-10T08:10:18.725Z,20.10
2019-01-10T08:13:22.255Z,20.09
2019-01-10T08:16:25.729Z,20.09
2019-01-10T08:19:29.179Z,20.07
2019-01-10T08:22:32.685Z,20.09
2019-01-10T08:25:36.128Z,20.09
2019-01-10T08:28:39.670Z,20.13
2019-01-10T08:31:43.125Z,20.14
2019-01-10T08:34:46.572Z,20.16
2019-01-10T08:37:50.034Z,20.16
2019-01-10T08:40:54.557Z,20.16
2019-01-10T08:43:58.066Z,20.20
2019-01-10T08:47:02.559Z,20.18
2019-01-10T08:50:07.852Z,20.21
2019-01-10T08:53:11.310Z,20.22
2019-01-10T08:56:14.845Z,20.21
2019-01-10T08:59:18.489Z,20.22
2019-01-10T09:02:22.146Z,20.23
2019-01-10T09:05:25.815Z,20.23
2019-01-10T09:08:29.369Z,20.27
2019-01-10T09:11:32.953Z,20.28
2019-01-10T09:14:36.530Z,20.27
2019-01-10T09:17:41.137Z,20.27
2019-01-10T09:20:44.889Z,20.27
2019-01-10T09:23:48.372Z,20.26
2019-01-10T09:26:53.062Z,20.27
2019-01-10T09:29:56.520Z,20.25
2019-01-10T09:33:01.032Z,20.28
2019-01-10T09:36:05.645Z,20.27
2019-01-10T09:39:09.315Z,20.29
2019-01-10T09:42:12.801Z,20.27
2019-01-10T09:45:18.304Z,20.28
2019-01-10T09:48:21.883Z,20.28
2019-01-10T09:51:25.523Z,20.29
2019-01-10T09:54:29.043Z,20.29
2019-01-10T09:57:32.493Z,20.30
2019-01-10T10:00:35.978Z,20.31
2019-01-10T10:03:39.436Z,20.35
2019-01-10T10:06:42.993Z,20.37
2019-01-10T10:09:46.560Z,20.35
2019-01-10T10:12:50.013Z,20.36
2019-01-10T10:15:53.591Z,20.36
2019-01-10T10:18:57.292Z,20.38
2019-01-10T10:22:00.834Z,20.36
2019-01-10T10:25:04.467Z,20.33
2019-01-10T10:28:08.974Z,20.35
2019-01-10T10:31:12.470Z,20.37
2019-01-10T10:34:16.003Z,20.37
2019-01-10T10:37:19.572Z,20.37
2019-01-10T10:40:23.124Z,20.37
2019-01-10T10:43:26.637Z,20.38
2019-01-10T10:46:31.118Z,20.36
2019-01-10T10:49:34.733Z,20.40
2019-01-10T10:52:41.284Z,20.41
2019-01-10T10:55:44.814Z,20.38
2019-01-10T10:58:48.310Z,20.39
2019-01-10T11:01:51.803Z,20.41
2019-01-10T11:04:55.427Z,20.41
2019-01-10T11:07:59.008Z,20.41
2019-01-10T11:11:02.641Z,20.41
2019-01-10T11:14:06.196Z,20.37
2019-01-10T11:17:09.713Z,20.39
2019-01-10T11:20:15.452Z,20.40
2019-01-10T11:23:18.975Z,20.37
2019-01-10T11:26:22.458Z,20.39
2019-01-10T11:29:25.985Z,20.36
2019-01-10T11:32:29.556Z,20.38
2019-01-10T11:35:33.196Z,20.38
2019-01-10T11:38:36.679Z,20.39
2019-01-10T11:41:40.168Z,20.42
2019-01-10T11:44:43.720Z,20.43
2019-01-10T11:47:47.367Z,20.44
2019-01-10T11:50:56.807Z,20.47
2019-01-10T11:54:00.327Z,20.47
2019-01-10T11:57:03.850Z,20.48
2019-01-10T12:00:11.035Z,20.48
2019-01-10T12:03:15.532Z,20.48
2019-01-10T12:06:19.087Z,20.50
2019-01-10T12:09:22.749Z,20.49
2019-01-10T12:12:26.232Z,20.49
2019-01-10T12:15:29.741Z,20.49
2019-01-10T12:18:33.224Z,20.50
2019-01-10T12:21:36.756Z,20.49
2019-01-10T12:24:41.285Z,20.48
2019-01-10T12:27:44.877Z,20.48
2019-01-10T12:30:48.548Z,20.46
2019-01-10T12:33:52.180Z,20.45
2019-01-10T12:37:01.650Z,20.43
2019-01-10T12:40:06.040Z,20.43
2019-01-10T12:43:09.665Z,20.42
2019-01-10T12:46:13.153Z,20.40
2019-01-10T12:49:16.868Z,20.41
2019-01-10T12:52:21.369Z,20.38
2019-01-10T12:55:24.990Z,20.39
2019-01-10T12:58:28.888Z,20.40
2019-01-10T13:01:32.517Z,20.40
2019-01-10T13:04:36.046Z,20.39
2019-01-10T13:07:39.519Z,20.39
2019-01-10T13:10:43.027Z,20.41
2019-01-10T13:13:46.569Z,20.42
2019-01-10T13:16:50.214Z,20.43
2019-01-10T13:19:53.739Z,20.46
2019-01-10T13:22:57.221Z,20.44
2019-01-10T13:26:00.832Z,20.45
2019-01-10T13:29:04.703Z,20.47
2019-01-10T13:32:08.355Z,20.49
2019-01-10T13:35:12.122Z,20.48
2019-01-10T13:38:15.754Z,20.48
2019-01-10T13:41:19.346Z,20.47
2019-01-10T13:44:22.971Z,20.47
2019-01-10T13:47:26.585Z,20.47
2019-01-10T13:50:31.384Z,20.45
2019-01-10T13:53:35.215Z,20.46
2019-01-10T13:56:39.094Z,20.48
2019-01-10T13:59:42.702Z,20.47
2019-01-10T14:02:46.199Z,20.48
2019-01-10T14:05:49.766Z,20.45
2019-01-10T14:08:53.431Z,20.44
2019-01-10T14:11:57.008Z,20.43
2019-01-10T14:15:00.640Z,20.43
2019-01-10T14:18:05.950Z,20.43
2019-01-10T14:21:10.518Z,20.43
2019-01-10T14:24:14.035Z,20.41
2019-01-10T14:27:17.525Z,20.39
2019-01-10T14:30:26.090Z,20.39
2019-01-10T14:33:29.713Z,20.40
2019-01-10T14:36:33.329Z,20.41
2019-01-10T14:39:36.914Z,20.42
2019-01-10T14:42:40.617Z,20.43
2019-01-10T14:45:44.406Z,20.43
2019-01-10T14:48:47.971Z,20.46
2019-01-10T14:51:51.604Z,20.47
2019-01-10T14:54:55.175Z,20.47
2019-01-10T14:57:58.646Z,20.45
2019-01-10T15:01:03.182Z,20.47
2019-01-10T15:04:06.695Z,20.47
2019-01-10T15:07:11.514Z,20.46
2019-01-10T15:10:15.507Z,20.46
2019-01-10T15:13:19.124Z,20.44
2019-01-10T15:16:24.779Z,20.45
2019-01-10T15:19:28.264Z,20.46
2019-01-10T15:22:31.790Z,20.48
2019-01-10T15:25:35.294Z,20.46
2019-01-10T15:28:38.784Z,20.45
2019-01-10T15:31:42.331Z,20.44
2019-01-10T15:34:45.791Z,20.43
2019-01-10T15:37:49.330Z,20.41
2019-01-10T15:40:52.894Z,20.41
2019-01-10T15:43:56.500Z,20.42
2019-01-10T15:47:01.025Z,20.40
2019-01-10T15:50:08.079Z,20.39
2019-01-10T15:53:11.714Z,20.39
2019-01-10T15:56:15.212Z,20.38
2019-01-10T15:59:18.711Z,20.35
2019-01-10T16:02:22.310Z,20.35
2019-01-10T16:05:26.113Z,20.36
2019-01-10T16:08:29.617Z,20.37
2019-01-10T16:11:33.230Z,20.37
2019-01-10T16:14:36.831Z,20.39
2019-01-10T16:17:40.330Z,20.41
2019-01-10T16:20:43.829Z,20.40
2019-01-10T16:23:48.373Z,20.42
2019-01-10T16:26:51.904Z,20.51
2019-01-10T16:29:55.343Z,20.55
2019-01-10T16:32:58.878Z,20.59
2019-01-10T16:36:02.352Z,20.61
2019-01-10T16:39:08.009Z,20.61
2019-01-10T16:42:12.652Z,20.62
2019-01-10T16:45:22.014Z,20.66
2019-01-10T16:48:25.610Z,20.67
2019-01-10T16:51:29.087Z,20.67
2019-01-10T16:54:33.700Z,20.71
2019-01-10T16:57:37.373Z,20.71
2019-01-10T17:00:40.801Z,20.74
2019-01-10T17:03:44.319Z,20.76
2019-01-10T17:06:48.835Z,20.74
2019-01-10T17:09:52.379Z,20.77
2019-01-10T17:12:56.948Z,20.66
2019-01-10T17:16:01.597Z,20.62
2019-01-10T17:19:05.120Z,20.63
2019-01-10T17:22:08.630Z,20.63
2019-01-10T17:25:12.164Z,20.63
2019-01-10T17:28:16.631Z,20.63
2019-01-10T17:31:20.102Z,20.62
2019-01-10T17:34:24.687Z,20.63
2019-01-10T17:37:28.258Z,20.65
2019-01-10T17:40:31.883Z,20.63
2019-01-10T17:43:35.374Z,20.63
2019-01-10T17:46:39.877Z,20.64
2019-01-10T17:49:43.435Z,20.64
2019-01-10T17:52:47.906Z,20.64
2019-01-10T17:55:52.438Z,20.64
2019-01-10T17:58:56.971Z,20.65
2019-01-10T18:02:00.464Z,20.65
2019-01-10T18:05:04.458Z,20.66
2019-01-10T18:08:08.191Z,20.66
2019-01-10T18:11:11.779Z,20.66
2019-01-10T18:14:15.280Z,20.66
2019-01-10T18:17:19.817Z,20.66
2019-01-10T18:20:25.833Z,20.66
2019-01-10T18:23:29.486Z,20.66
2019-01-10T18:26:33.987Z,20.67
2019-01-10T18:29:37.785Z,20.67
2019-01-10T18:32:41.442Z,20.66
2019-01-10T18:35:44.909Z,20.66
2019-01-10T18:38:48.416Z,20.69
2019-01-10T18:41:51.909Z,20.67
2019-01-10T18:44:55.497Z,20.67
2019-01-10T18:47:59.143Z,20.69
2019-01-10T18:51:02.601Z,20.67
2019-01-10T18:54:06.140Z,20.67
2019-01-10T18:57:09.622Z,20.69
2019-01-10T19:00:16.290Z,20.66
2019-01-10T19:03:19.944Z,20.67
2019-01-10T19:06:23.395Z,20.69
2019-01-10T19:09:26.892Z,20.69
2019-01-10T19:12:30.346Z,20.69
2019-01-10T19:15:33.919Z,20.69
2019-01-10T19:18:37.454Z,20.68
2019-01-10T19:21:40.903Z,20.72
2019-01-10T19:24:44.432Z,20.71
2019-01-10T19:27:47.945Z,20.72
2019-01-10T19:30:52.477Z,20.71
2019-01-10T19:33:56.267Z,20.73
2019-01-10T19:36:59.857Z,20.74
2019-01-10T19:40:05.366Z,20.73
2019-01-10T19:43:08.926Z,20.72
2019-01-10T19:46:12.413Z,20.74
2019-01-10T19:49:16.014Z,20.73
2019-01-10T19:52:20.614Z,20.72
2019-01-10T19:55:24.151Z,20.75
2019-01-10T19:58:27.680Z,20.74
2019-01-10T20:01:31.648Z,20.74
2019-01-10T20:04:35.241Z,20.74
2019-01-10T20:07:38.764Z,20.73
2019-01-10T20:10:42.282Z,20.73
2019-01-10T20:13:45.750Z,20.74
2019-01-10T20:16:49.346Z,20.74
2019-01-10T20:19:52.966Z,20.75
2019-01-10T20:22:58.065Z,20.75
2019-01-10T20:26:01.597Z,20.75
2019-01-10T20:29:05.210Z,20.76
2019-01-10T20:32:08.702Z,20.75
2019-01-10T20:35:12.326Z,20.76
2019-01-10T20:38:16.959Z,20.75
2019-01-10T20:41:20.558Z,20.76
2019-01-10T20:44:25.110Z,20.74
2019-01-10T20:47:29.587Z,20.76
2019-01-10T20:50:34.137Z,20.75
2019-01-10T20:53:37.616Z,20.75
2019-01-10T20:56:41.140Z,20.76
2019-01-10T20:59:44.629Z,20.76
2019-01-10T21:02:48.234Z,20.77
2019-01-10T21:05:52.895Z,20.76
2019-01-10T21:08:56.356Z,20.77
2019-01-10T21:12:01.898Z,20.75
2019-01-10T21:15:08.380Z,20.74
2019-01-10T21:18:12.002Z,20.69
2019-01-10T21:21:15.500Z,20.69
2019-01-10T21:24:19.007Z,20.66
2019-01-10T21:27:22.476Z,20.65
2019-01-10T21:30:26.090Z,20.62
2019-01-10T21:33:29.828Z,20.61
2019-01-10T21:36:33.330Z,20.58
2019-01-10T21:39:38.934Z,20.57
2019-01-10T21:42:42.461Z,20.57
2019-01-10T21:45:45.958Z,20.54
2019-01-10T21:48:49.476Z,20.53
2019-01-10T21:51:52.945Z,20.51
2019-01-10T21:54:56.459Z,20.52
2019-01-10T21:58:00.755Z,20.50
2019-01-10T22:01:05.303Z,20.49
2019-01-10T22:04:09.810Z,20.49
2019-01-10T22:07:13.299Z,20.47
2019-01-10T22:10:16.822Z,20.46
2019-01-10T22:13:20.370Z,20.45
2019-01-10T22:16:23.834Z,20.45
2019-01-10T22:19:28.347Z,20.46
2019-01-10T22:22:31.845Z,20.44
2019-01-10T22:25:36.363Z,20.42
2019-01-10T22:28:41.912Z,20.43
2019-01-10T22:31:45.414Z,20.41
2019-01-10T22:34:49.948Z,20.42
2019-01-10T22:37:53.447Z,20.41
2019-01-10T22:40:56.950Z,20.41
2019-01-10T22:44:00.742Z,20.41
2019-01-10T22:47:05.431Z,20.41
2019-01-10T22:50:10.415Z,20.41
2019-01-10T22:53:13.920Z,20.40
2019-01-10T22:56:17.540Z,20.38
2019-01-10T22:59:21.243Z,20.38
2019-01-10T23:02:24.934Z,20.37
2019-01-10T23:05:28.438Z,20.35
2019-01-10T23:08:32.227Z,20.37
2019-01-10T23:11:36.100Z,20.34
2019-01-10T23:14:39.722Z,20.34
2019-01-10T23:17:52.633Z,20.34
2019-01-10T23:21:00.239Z,20.32
2019-01-10T23:24:14.425Z,20.31
2019-01-10T23:27:17.941Z,20.31
2019-01-10T23:30:44.570Z,20.30
2019-01-10T23:33:48.001Z,20.30
2019-01-10T23:36:52.175Z,20.28
2019-01-10T23:39:56.338Z,20.30
2019-01-10T23:43:00.810Z,20.27
2019-01-10T23:46:05.670Z,20.28
2019-01-10T23:49:09.114Z,20.26
2019-01-10T23:52:12.794Z,20.26
2019-01-10T23:55:17.310Z,20.24
2019-01-10T23:58:21.057Z,20.25
